Time;durP1;ratioP1;P1;durP2;ratioP2;P2;SDS_P1;SDS_P2;PMS_P1;PMS_P2;Temp;Humidity;BMP_temperature;BMP_pressure;BME280_temperature;BME280_humidity;BME280_pressure;Samples;Min_cycle;Max_cycle;Signal;HPM_P1;HPM_P2
2023/01/14 00:01:45;;;;;;;17.08;3.05;;;;;;;5.79;100.00;100556.44;6094998;23;20109;-79
2023/01/14 00:04:12;;;;;;;22.83;2.65;;;;;;;5.12;100.00;100422.38;6094426;23;20027;-79
2023/01/14 00:06:39;;;;;;;17.45;2.72;;;;;;;5.62;100.00;100525.31;6095328;23;20025;-79
2023/01/14 00:09:10;;;;;;;19.60;3.13;;;;;;;5.37;100.00;100477.75;6094630;23;20026;-79
2023/01/14 00:11:46;;;;;;;21.15;3.17;;;;;;;5.01;100.00;100441.91;6092492;23;20022;-80
2023/01/14 00:14:19;;;;;;;18.15;3.15;;;;;;;5.75;100.00;100554.78;6093672;23;20414;-80
2023/01/14 00:16:45;;;;;;;17.88;2.67;;;;;;;6.06;100.00;100615.34;6094063;23;20034;-80
2023/01/14 00:19:12;;;;;;;16.35;2.75;;;;;;;5.74;100.00;100567.03;6093548;23;20102;-79
2023/01/14 00:21:41;;;;;;;13.35;3.30;;;;;;;5.77;100.00;100574.84;6093658;23;20018;-79
2023/01/14 00:24:08;;;;;;;12.82;2.33;;;;;;;5.98;100.00;100610.31;6093482;23;20022;-79
2023/01/14 00:26:35;;;;;;;14.43;3.33;;;;;;;5.61;100.00;100553.34;6092751;23;20018;-80
2023/01/14 00:29:02;;;;;;;12.82;2.35;;;;;;;4.98;100.00;100448.09;6093266;23;20094;-80
2023/01/14 00:31:29;;;;;;;14.55;2.40;;;;;;;5.58;100.00;100555.19;6094678;23;20022;-80
2023/01/14 00:33:58;;;;;;;15.10;2.70;;;;;;;6.11;100.00;100626.63;6095955;23;20027;-80
2023/01/14 00:36:26;;;;;;;15.23;2.83;;;;;;;5.79;100.00;100580.06;6096179;23;20358;-80
2023/01/14 00:38:53;;;;;;;13.50;2.55;;;;;;;5.96;100.00;100601.59;6095979;23;20102;-79
2023/01/14 00:41:23;;;;;;;14.23;2.88;;;;;;;5.53;100.00;100518.50;6095309;23;20018;-79
2023/01/14 00:43:53;;;;;;;12.55;2.00;;;;;;;5.93;100.00;100581.50;6096778;23;20019;-81
2023/01/14 00:46:24;;;;;;;14.65;2.38;;;;;;;5.92;100.00;100589.41;6096231;23;20026;-81
2023/01/14 00:48:51;;;;;;;13.43;2.30;;;;;;;6.27;100.00;100626.19;6080254;23;20022;-78
2023/01/14 00:51:18;;;;;;;19.83;3.03;;;;;;;6.04;100.00;100577.72;6110618;23;20057;-78
2023/01/14 00:53:46;;;;;;;15.18;2.75;;;;;;;5.69;100.00;100524.25;6109977;23;20022;-80
2023/01/14 00:56:15;;;;;;;15.35;2.58;;;;;;;6.29;100.00;100629.66;6107736;23;20081;-80
2023/01/14 00:58:41;;;;;;;12.15;2.63;;;;;;;5.44;100.00;100489.00;6069363;23;20019;-79
2023/01/14 01:01:08;;;;;;;11.88;2.33;;;;;;;6.22;100.00;100614.06;6094590;23;20361;-78
2023/01/14 01:04:02;;;;;;;15.50;2.40;;;;;;;6.33;100.00;100617.28;6094522;23;20081;-80
2023/01/14 01:06:28;;;;;;;13.07;2.25;;;;;;;6.05;100.00;100561.91;6066867;23;20018;-78
2023/01/14 01:08:58;;;;;;;13.32;2.55;;;;;;;6.18;100.00;100617.66;6069035;23;20041;-78
2023/01/14 01:11:25;;;;;;;9.70;1.85;;;;;;;6.04;100.00;100582.97;6094681;23;20405;-78
2023/01/14 01:13:54;;;;;;;14.35;2.38;;;;;;;5.67;100.00;100523.41;6094630;23;20101;-80
2023/01/14 01:16:23;;;;;;;13.85;2.33;;;;;;;6.03;100.00;100581.25;6093726;23;20025;-79
2023/01/14 01:18:53;;;;;;;16.08;2.45;;;;;;;5.99;100.00;100573.44;6094418;23;20030;-77
2023/01/14 01:21:20;;;;;;;8.23;2.15;;;;;;;6.37;100.00;100647.00;6094441;23;20022;-79
2023/01/14 01:23:47;;;;;;;13.68;2.53;;;;;;;5.70;100.00;100531.22;6093790;23;20019;-78
2023/01/14 01:26:19;;;;;;;12.77;2.20;;;;;;;5.43;100.00;100495.13;6093340;23;20019;-78
2023/01/14 01:28:51;;;;;;;15.57;2.53;;;;;;;6.23;100.00;100610.53;6093599;23;20749;-78
2023/01/14 01:31:18;;;;;;;10.68;2.13;;;;;;;6.33;100.00;100633.06;6093876;23;20018;-81
2023/01/14 01:33:45;;;;;;;8.80;2.17;;;;;;;5.44;100.00;100489.84;6094569;23;20026;-79
2023/01/14 01:36:15;;;;;;;17.17;2.60;;;;;;;5.26;100.00;100467.53;6094201;23;20023;-79
2023/01/14 01:38:42;;;;;;;12.43;2.80;;;;;;;6.25;100.00;100643.78;6069257;23;20070;-79
2023/01/14 01:41:15;;;;;;;15.45;2.45;;;;;;;5.42;100.00;100520.53;6094271;23;20105;-80
2023/01/14 01:44:03;;;;;;;15.82;2.55;;;;;;;5.93;100.00;100592.00;6096614;23;20022;-80
2023/01/14 01:46:31;;;;;;;13.88;2.47;;;;;;;6.27;100.00;100646.38;6096621;23;20019;-80
2023/01/14 01:49:03;;;;;;;12.50;2.53;;;;;;;6.21;100.00;100646.53;6096459;23;20050;-80
2023/01/14 01:51:33;;;;;;;15.48;2.30;;;;;;;5.94;100.00;100598.13;6098546;23;20114;-81
2023/01/14 01:54:02;;;;;;;13.80;2.65;;;;;;;6.12;100.00;100639.75;6096118;23;20018;-80
2023/01/14 01:56:33;;;;;;;12.68;2.30;;;;;;;6.05;100.00;100632.88;6095099;23;20024;-82
2023/01/14 01:59:05;;;;;;;15.65;2.97;;;;;;;6.22;100.00;100678.03;6096168;23;20029;-81
2023/01/14 02:01:33;;;;;;;15.68;2.22;;;;;;;6.05;100.00;100637.28;6096480;23;20483;-81
2023/01/14 02:03:59;;;;;;;15.18;2.30;;;;;;;5.16;100.00;100502.78;6097951;23;20029;-83
2023/01/14 02:06:26;;;;;;;13.63;2.65;;;;;;;5.60;100.00;100591.03;6102626;23;20023;-81
2023/01/14 02:08:56;;;;;;;17.90;2.42;;;;;;;5.65;100.00;100596.19;6102125;23;20033;-81
2023/01/14 02:11:37;;;;;;;12.63;2.13;;;;;;;6.10;100.00;100682.75;6104127;23;20050;-81
2023/01/14 02:14:10;;;;;;;14.70;2.30;;;;;;;6.06;100.00;100676.69;6100889;23;20541;-81
2023/01/14 02:16:37;;;;;;;15.63;2.97;;;;;;;6.04;100.00;100678.47;6101868;23;20078;-81
2023/01/14 02:19:14;;;;;;;17.25;2.80;;;;;;;6.02;100.00;100685.53;6098662;23;20040;-82
2023/01/14 02:22:29;;;;;;;15.13;2.83;;;;;;;6.05;100.00;100687.22;6096649;23;20430;-82
2023/01/14 02:25:14;;;;;;;15.73;2.60;;;;;;;6.05;100.00;100685.47;6097040;23;20050;-83
2023/01/14 02:27:55;;;;;;;16.75;3.22;;;;;;;6.02;100.00;100680.28;6096799;23;20029;-82
2023/01/14 02:30:32;;;;;;;15.52;2.58;;;;;;;5.99;100.00;100683.84;6096063;23;20018;-82
2023/01/14 02:33:23;;;;;;;12.93;2.50;;;;;;;5.87;100.00;100663.06;6097004;23;20019;-81
2023/01/14 02:35:58;;;;;;;15.57;2.50;;;;;;;5.93;100.00;100670.00;6096369;23;20110;-82
2023/01/14 02:38:33;;;;;;;18.95;3.03;;;;;;;5.87;100.00;100656.94;6096704;23;20050;-80
2023/01/14 02:41:08;;;;;;;13.75;2.70;;;;;;;6.07;100.00;100677.53;6096959;23;20097;-81
2023/01/14 02:44:07;;;;;;;15.25;2.80;;;;;;;5.73;100.00;100620.50;6095925;23;20026;-82
2023/01/14 02:46:40;;;;;;;11.60;2.38;;;;;;;5.98;100.00;100663.72;6096085;23;20029;-83
2023/01/14 02:49:17;;;;;;;12.20;2.72;;;;;;;5.16;100.00;100534.28;6096131;23;20022;-80
2023/01/14 02:51:45;;;;;;;14.02;2.38;;;;;;;5.10;100.00;100538.78;6097032;23;20019;-83
2023/01/14 02:54:12;;;;;;;15.57;2.70;;;;;;;5.37;100.00;100569.66;6101866;23;20029;-84
2023/01/14 02:56:39;;;;;;;12.43;2.85;;;;;;;5.89;100.00;100652.56;6102205;23;20022;-83
2023/01/14 02:59:14;;;;;;;15.35;2.25;;;;;;;5.69;100.00;100634.59;6104373;23;20054;-82
2023/01/14 03:01:55;;;;;;;16.67;2.50;;;;;;;5.81;100.00;100660.59;6100300;23;20018;-84
2023/01/14 03:04:29;;;;;;;15.48;2.70;;;;;;;5.78;100.00;100665.94;6099969;23;20022;-83
2023/01/14 03:07:01;;;;;;;15.63;2.78;;;;;;;5.51;100.00;100617.50;6098653;23;20094;-82
2023/01/14 03:09:31;;;;;;;13.55;2.97;;;;;;;5.77;100.00;100658.09;6104457;23;20022;-83
2023/01/14 03:12:17;;;;;;;16.00;2.20;;;;;;;5.37;100.00;100602.94;6104612;23;20018;-82
2023/01/14 03:14:50;;;;;;;13.63;2.50;;;;;;;5.55;100.00;100621.78;6103630;23;20240;-83
2023/01/14 03:17:39;;;;;;;18.75;2.58;;;;;;;5.68;100.00;100645.13;6106349;23;20030;-83
2023/01/14 03:20:14;;;;;;;12.57;2.53;;;;;;;5.09;100.00;100548.44;6098757;23;20046;-81
2023/01/14 03:22:42;;;;;;;12.80;2.75;;;;;;;5.49;100.00;100621.94;6098803;23;20145;-81
2023/01/14 03:25:13;;;;;;;19.10;2.78;;;;;;;5.01;100.00;100545.13;6102865;23;20029;-81
2023/01/14 03:27:43;;;;;;;22.25;2.30;;;;;;;4.94;100.00;100538.25;6099817;23;20022;-80
2023/01/14 03:30:16;;;;;;;14.05;2.60;;;;;;;4.67;100.00;100496.88;6083521;23;20029;-79
2023/01/14 03:32:49;;;;;;;19.15;2.50;;;;;;;5.38;100.00;100607.28;6102826;23;20022;-81
2023/01/14 03:35:21;;;;;;;18.35;2.60;;;;;;;4.08;100.00;100408.09;6081373;23;20046;-81
2023/01/14 03:37:54;;;;;;;16.38;2.63;;;;;;;4.32;100.00;100442.56;6107868;23;20109;-80
2023/01/14 03:40:25;;;;;;;12.43;2.63;;;;;;;4.69;100.00;100495.97;6098152;23;20019;-81
2023/01/14 03:43:00;;;;;;;13.88;2.72;;;;;;;4.59;100.00;100486.53;6095702;23;20018;-80
2023/01/14 03:45:32;;;;;;;15.63;2.92;;;;;;;5.28;100.00;100586.50;6094642;23;20030;-81
2023/01/14 03:47:59;;;;;;;11.43;2.30;;;;;;;5.15;100.00;100566.69;6094746;23;20045;-80
2023/01/14 03:50:32;;;;;;;16.90;2.97;;;;;;;5.06;100.00;100535.38;6069385;23;20041;-82
2023/01/14 03:53:20;;;;;;;16.35;2.40;;;;;;;5.22;100.00;100578.75;6094888;23;20025;-80
2023/01/14 03:56:04;;;;;;;14.85;3.17;;;;;;;5.37;100.00;100598.56;6094493;23;20104;-80
2023/01/14 03:58:35;;;;;;;14.05;2.17;;;;;;;5.47;100.00;100610.59;6096790;23;20022;-80
2023/01/14 04:01:20;;;;;;;18.42;2.67;;;;;;;5.30;100.00;100589.09;6095525;23;20639;-80
2023/01/14 04:03:48;;;;;;;16.77;2.65;;;;;;;5.37;100.00;100602.94;6094844;23;20077;-81
2023/01/14 04:06:14;;;;;;;18.08;2.80;;;;;;;5.05;100.00;100557.25;6098781;23;20026;-80
2023/01/14 04:08:41;;;;;;;17.15;2.58;;;;;;;5.14;100.00;100566.72;6068342;23;20030;-81
2023/01/14 04:11:08;;;;;;;16.10;2.70;;;;;;;5.14;100.00;100564.94;6070012;23;20116;-81
2023/01/14 04:16:20;;;;;;;11.23;2.70;;;;;;;4.94;100.00;100526.00;6080536;23;20027;-82
2023/01/14 04:18:47;;;;;;;17.13;2.88;;;;;;;5.13;100.00;100552.72;6081675;23;20027;-80
2023/01/14 04:21:13;;;;;;;15.07;2.33;;;;;;;5.22;100.00;100565.63;6085389;23;20067;-80
2023/01/14 04:23:40;;;;;;;13.50;2.90;;;;;;;4.87;100.00;100506.06;6084462;23;20025;-80
2023/01/14 04:26:06;;;;;;;19.60;3.10;;;;;;;4.85;100.00;100520.13;6079856;23;20054;-79
2023/01/14 04:28:33;;;;;;;13.50;2.80;;;;;;;4.99;100.00;100530.31;6079236;23;20034;-80
2023/01/14 04:30:59;;;;;;;15.77;2.60;;;;;;;4.82;100.00;100509.69;6073959;23;20019;-81
2023/01/14 04:33:26;;;;;;;12.70;2.90;;;;;;;5.15;100.00;100569.31;6072488;23;20118;-81
2023/01/14 04:35:53;;;;;;;15.68;2.78;;;;;;;5.15;100.00;100557.94;6076587;23;20023;-80
2023/01/14 04:38:21;;;;;;;12.40;2.50;;;;;;;5.26;100.00;100555.94;6071888;23;20034;-80
2023/01/14 04:40:49;;;;;;;20.42;2.85;;;;;;;5.34;100.00;100582.03;6071919;23;20050;-81
2023/01/14 04:43:16;;;;;;;10.88;2.92;;;;;;;4.70;100.00;100483.72;6076221;23;20054;-81
2023/01/14 04:45:43;;;;;;;15.60;2.60;;;;;;;5.23;100.00;100569.97;6083678;23;20019;-80
2023/01/14 04:48:10;;;;;;;17.40;3.15;;;;;;;4.94;100.00;100533.88;6082514;23;20109;-80
2023/01/14 04:50:43;;;;;;;20.20;2.90;;;;;;;4.38;100.00;100452.94;6084166;23;20053;-80
2023/01/14 04:53:15;;;;;;;14.60;2.53;;;;;;;5.29;100.00;100593.50;6084925;23;20023;-79
2023/01/14 04:55:46;;;;;;;20.90;3.38;;;;;;;5.05;100.00;100544.13;6083877;23;20022;-80
2023/01/14 04:58:17;;;;;;;13.10;2.65;;;;;;;5.34;100.00;100589.91;6084544;23;20108;-79
2023/01/14 05:00:44;;;;;;;18.70;2.85;;;;;;;5.12;100.00;100565.88;6083952;23;20046;-79
2023/01/14 05:03:14;;;;;;;14.13;2.83;;;;;;;5.25;100.00;100618.06;6077333;23;20037;-81
2023/01/14 05:05:41;;;;;;;13.17;2.53;;;;;;;4.27;100.00;100442.63;6081013;23;20019;-81
2023/01/14 05:08:09;;;;;;;13.73;2.65;;;;;;;5.29;100.00;100592.63;6072630;23;20109;-79
2023/01/14 05:10:35;;;;;;;15.60;3.08;;;;;;;5.25;100.00;100580.44;6071887;23;20019;-80
2023/01/14 05:13:05;;;;;;;18.92;3.35;;;;;;;5.39;100.00;100594.13;6075889;23;20027;-79
2023/01/14 05:15:38;;;;;;;12.45;2.78;;;;;;;5.06;100.00;100530.13;6070199;23;20029;-79
2023/01/14 05:18:06;;;;;;;14.93;3.08;;;;;;;5.51;100.00;100577.25;6077001;23;20018;-80
2023/01/14 05:20:33;;;;;;;17.35;2.47;;;;;;;5.41;100.00;100565.22;6075577;23;20390;-80
2023/01/14 05:23:02;;;;;;;18.67;2.60;;;;;;;5.31;100.00;100533.06;6072413;23;20102;-81
2023/01/14 05:25:31;;;;;;;15.73;2.92;;;;;;;5.12;100.00;100508.13;6074054;23;20019;-81
2023/01/14 05:28:07;;;;;;;11.38;2.78;;;;;;;4.77;100.00;100438.06;6072315;23;20027;-81
2023/01/14 05:30:33;;;;;;;19.98;3.00;;;;;;;4.37;100.00;100370.78;6069873;23;20057;-80
2023/01/14 05:33:00;;;;;;;16.60;2.80;;;;;;;4.48;100.00;100386.28;6069098;23;20023;-80
2023/01/14 05:35:28;;;;;;;17.15;2.78;;;;;;;5.12;100.00;100498.50;6076872;23;20023;-79
2023/01/14 05:37:55;;;;;;;12.98;2.55;;;;;;;4.86;100.00;100456.25;6070746;23;20106;-80
2023/01/14 05:40:21;;;;;;;12.02;2.88;;;;;;;5.37;100.00;100537.28;6069108;23;20086;-81
2023/01/14 05:45:48;;;;;;;19.45;2.80;;;;;;;4.96;100.00;100441.16;6070195;23;20098;-80
2023/01/14 05:48:23;;;;;;;20.08;2.70;;;;;;;5.19;100.00;100473.84;6069704;23;20034;-81
2023/01/14 05:50:54;;;;;;;11.57;3.03;;;;;;;5.59;100.00;100525.38;6066536;23;20021;-79
2023/01/14 05:53:22;;;;;;;14.98;2.58;;;;;;;5.58;100.00;100495.63;6068086;23;20018;-80
2023/01/14 05:55:49;;;;;;;17.85;3.17;;;;;;;5.73;100.00;100507.50;6090255;23;20027;-80
2023/01/14 05:58:16;;;;;;;21.60;3.78;;;;;;;5.48;100.00;100459.13;6067879;23;20118;-82
2023/01/14 06:06:21;;;;;;;13.90;2.70;;;;;;;5.77;100.00;100510.94;6067496;23;20043;-79
2023/01/14 06:09:11;;;;;;;15.77;2.80;;;;;;;5.68;100.00;100495.38;6082032;23;20056;-79
2023/01/14 06:11:45;;;;;;;14.80;2.25;;;;;;;5.49;100.00;100461.72;6085178;23;20391;-79
2023/01/14 06:14:12;;;;;;;17.20;3.20;;;;;;;5.39;100.00;100440.97;6095012;23;20078;-79
2023/01/14 06:16:39;;;;;;;13.70;2.80;;;;;;;5.50;100.00;100444.19;6071648;23;20073;-81
2023/01/14 06:19:12;;;;;;;12.27;2.80;;;;;;;5.82;100.00;100503.81;6096337;23;20105;-79
2023/01/14 06:21:39;;;;;;;16.05;2.65;;;;;;;4.96;100.00;100358.03;6099556;23;20022;-80
2023/01/14 06:24:06;;;;;;;19.98;3.38;;;;;;;5.67;100.00;100476.13;6102615;23;20028;-79
2023/01/14 06:26:35;;;;;;;11.95;2.83;;;;;;;4.78;100.00;100317.38;6102627;23;20101;-78
2023/01/14 06:29:04;;;;;;;12.07;3.00;;;;;;;5.66;100.00;100476.19;6070798;23;20398;-79
2023/01/14 06:31:32;;;;;;;16.33;3.38;;;;;;;5.21;100.00;100403.75;6094778;23;20031;-78
2023/01/14 06:34:01;;;;;;;14.13;3.17;;;;;;;5.58;100.00;100463.25;6095448;23;20024;-79
2023/01/14 06:36:30;;;;;;;16.52;3.08;;;;;;;5.38;100.00;100418.22;6095371;23;20030;-79
2023/01/14 06:38:56;;;;;;;16.10;3.10;;;;;;;5.40;100.00;100417.28;6095034;23;20038;-79
2023/01/14 06:41:23;;;;;;;13.25;2.58;;;;;;;5.72;100.00;100471.63;6094924;23;20018;-79
2023/01/14 06:43:50;;;;;;;16.27;3.13;;;;;;;5.29;100.00;100378.19;6094157;23;20033;-79
2023/01/14 06:46:17;;;;;;;14.70;2.60;;;;;;;5.57;100.00;100417.72;6068878;23;20025;-78
2023/01/14 06:48:44;;;;;;;18.50;3.10;;;;;;;6.01;100.00;100477.91;6094001;23;20367;-79
2023/01/14 06:51:13;;;;;;;16.60;2.80;;;;;;;5.75;100.00;100428.66;6069490;23;20014;-79
2023/01/14 06:53:41;;;;;;;17.95;3.10;;;;;;;5.50;100.00;100394.28;6094688;23;20027;-79
2023/01/14 06:56:10;;;;;;;22.10;3.08;;;;;;;6.02;100.00;100466.50;6094499;23;20019;-81
2023/01/14 06:58:36;;;;;;;12.18;3.28;;;;;;;5.83;100.00;100424.03;6094802;23;20077;-80
2023/01/14 07:01:03;;;;;;;13.88;3.63;;;;;;;5.97;100.00;100462.25;6094845;23;20021;-79
2023/01/14 07:03:30;;;;;;;21.00;3.00;;;;;;;5.46;100.00;100359.38;6095247;23;20097;-80
2023/01/14 07:05:59;;;;;;;14.07;2.60;;;;;;;5.97;100.00;100419.31;6094605;23;20018;-78
2023/01/14 07:08:26;;;;;;;18.58;3.00;;;;;;;6.25;100.00;100459.69;6094140;23;20026;-78
2023/01/14 07:10:53;;;;;;;20.25;3.00;;;;;;;5.72;100.00;100353.41;6094096;23;20029;-78
2023/01/14 07:13:21;;;;;;;17.90;2.95;;;;;;;5.86;100.00;100377.50;6094856;23;20018;-80
2023/01/14 07:15:48;;;;;;;21.30;3.50;;;;;;;5.80;100.00;100374.22;6069596;23;20029;-80
2023/01/14 07:18:15;;;;;;;17.20;3.47;;;;;;;6.28;100.00;100435.09;6095630;23;20103;-79
2023/01/14 07:20:42;;;;;;;10.80;2.50;;;;;;;6.32;100.00;100420.94;6094799;23;20033;-79
2023/01/14 07:23:09;;;;;;;17.02;2.70;;;;;;;6.45;100.00;100430.22;6096169;23;20033;-80
2023/01/14 07:25:36;;;;;;;14.77;2.97;;;;;;;5.61;100.00;100295.03;6095602;23;20023;-79
2023/01/14 07:28:04;;;;;;;14.95;2.60;;;;;;;5.77;100.00;100332.25;6095823;23;20497;-80
2023/01/14 07:30:31;;;;;;;19.40;2.88;;;;;;;6.18;100.00;100412.56;6095270;23;20018;-82
2023/01/14 07:32:59;;;;;;;12.25;2.83;;;;;;;5.39;100.00;100262.41;6094998;23;20018;-81
2023/01/14 07:35:29;;;;;;;16.83;3.05;;;;;;;6.01;100.00;100367.50;6094725;23;20022;-79
2023/01/14 07:37:58;;;;;;;20.08;4.40;;;;;;;6.38;100.00;100420.75;6095959;23;20034;-80
2023/01/14 07:40:26;;;;;;;19.63;2.70;;;;;;;6.39;100.00;100411.97;6098755;23;20089;-83
2023/01/14 07:42:57;;;;;;;17.83;3.00;;;;;;;5.69;100.00;100286.94;6099906;23;20033;-82
2023/01/14 07:45:26;;;;;;;13.45;2.80;;;;;;;5.44;100.00;100277.13;6104091;23;20378;-82
2023/01/14 07:47:53;;;;;;;17.42;3.10;;;;;;;6.04;100.00;100349.03;6108961;23;20407;-83
2023/01/14 07:50:20;;;;;;;18.05;2.97;;;;;;;5.48;100.00;100230.66;6109707;23;20022;-81
2023/01/14 07:52:56;;;;;;;15.55;2.67;;;;;;;5.82;100.00;100294.44;6110675;23;20049;-82
2023/01/14 07:55:23;;;;;;;16.73;3.15;;;;;;;6.44;100.00;100414.47;6110782;23;20050;-82
2023/01/14 07:57:50;;;;;;;20.80;2.92;;;;;;;5.39;100.00;100213.38;6112938;23;20100;-82
2023/01/14 08:00:17;;;;;;;9.85;2.40;;;;;;;6.21;100.00;100357.28;6112122;23;20022;-82
2023/01/14 08:02:45;;;;;;;14.15;2.35;;;;;;;6.46;100.00;100384.56;6112921;23;20365;-82
2023/01/14 08:05:12;;;;;;;12.55;2.97;;;;;;;6.48;100.00;100393.25;6110316;23;20027;-82
2023/01/14 08:07:39;;;;;;;17.40;2.83;;;;;;;5.95;100.00;100287.94;6111068;23;20037;-82
2023/01/14 08:10:07;;;;;;;20.40;3.25;;;;;;;6.05;100.00;100306.91;6109048;23;20029;-84
2023/01/14 08:12:36;;;;;;;12.13;3.05;;;;;;;5.86;100.00;100259.25;6106562;23;20378;-82
2023/01/14 08:15:04;;;;;;;16.10;2.60;;;;;;;5.99;100.00;100270.28;6107072;23;20053;-81
2023/01/14 08:17:31;;;;;;;18.05;2.92;;;;;;;6.25;100.00;100312.44;6109407;23;20023;-82
2023/01/14 08:19:58;;;;;;;13.88;2.33;;;;;;;4.99;100.00;100111.28;6109729;23;20097;-82
2023/01/14 08:22:25;;;;;;;11.25;2.33;;;;;;;5.70;100.00;100213.31;6109446;23;20014;-83
2023/01/14 08:24:52;;;;;;;16.42;2.92;;;;;;;6.40;100.00;100329.53;6083326;23;20033;-83
2023/01/14 08:27:18;;;;;;;16.67;2.80;;;;;;;5.63;100.00;100199.53;6106711;23;20034;-84
2023/01/14 08:29:45;;;;;;;13.82;3.10;;;;;;;5.68;100.00;100193.25;6107943;23;20082;-84
2023/01/14 08:32:13;;;;;;;12.95;2.88;;;;;;;6.59;100.00;100341.19;6082115;23;20022;-83
2023/01/14 08:34:40;;;;;;;13.35;3.00;;;;;;;6.17;100.00;100267.09;6108403;23;20041;-82
2023/01/14 08:37:07;;;;;;;14.95;3.20;;;;;;;5.40;100.00;100119.69;6082686;23;20046;-82
2023/01/14 08:39:33;;;;;;;11.68;3.03;;;;;;;4.88;100.00;100055.63;6107320;23;20350;-83
2023/01/14 08:42:01;;;;;;;16.67;3.50;;;;;;;5.51;100.00;100165.72;6110777;23;20018;-84
2023/01/14 08:44:28;;;;;;;21.70;3.17;;;;;;;5.46;100.00;100162.41;6112272;23;20026;-82
2023/01/14 08:46:54;;;;;;;18.77;3.85;;;;;;;4.82;100.00;100058.44;6109971;23;20025;-81
2023/01/14 08:49:21;;;;;;;17.35;2.80;;;;;;;6.04;100.00;100215.81;6110466;23;20042;-84
2023/01/14 08:51:49;;;;;;;18.10;3.22;;;;;;;5.68;100.00;100144.22;6104694;23;20101;-81
2023/01/14 08:54:26;;;;;;;12.98;2.55;;;;;;;5.98;100.00;100184.50;6098990;23;20030;-82
2023/01/14 08:57:07;;;;;;;9.85;2.78;;;;;;;5.64;100.00;100126.84;6099505;23;20026;-81
2023/01/14 08:59:34;;;;;;;13.68;2.47;;;;;;;6.48;100.00;100280.16;6071076;23;20029;-81
2023/01/14 09:02:00;;;;;;;11.85;2.83;;;;;;;6.46;100.00;100218.84;6097487;23;20034;-82
2023/01/14 09:04:27;;;;;;;14.70;2.75;;;;;;;6.49;100.00;100231.88;6096841;23;20058;-82
2023/01/14 09:18:05;;;;;;;14.75;2.42;;;;;;;6.27;100.00;100170.41;6096545;23;20098;-81
2023/01/14 09:20:35;;;;;;;10.15;2.13;;;;;;;5.54;100.00;100038.72;6096119;23;20018;-82
2023/01/14 09:23:05;;;;;;;13.60;2.65;;;;;;;6.92;100.00;100280.47;6095045;23;20015;-81
2023/01/14 09:25:34;;;;;;;13.65;2.28;;;;;;;6.11;100.00;100135.88;6095821;23;20041;-82
2023/01/14 09:28:01;;;;;;;12.55;2.60;;;;;;;5.25;100.00;99993.25;6096862;23;20049;-80
2023/01/14 09:30:29;;;;;;;10.40;2.25;;;;;;;5.24;100.00;99988.03;6071962;23;20033;-81
2023/01/14 09:32:58;;;;;;;9.65;2.22;;;;;;;5.98;100.00;100098.59;6096618;23;20050;-81
2023/01/14 09:35:25;;;;;;;10.60;2.35;;;;;;;6.43;100.00;100173.38;6096369;23;20023;-81
2023/01/14 09:37:52;;;;;;;10.02;1.95;;;;;;;6.60;100.00;100200.84;6096449;23;20018;-80
2023/01/14 09:40:19;;;;;;;6.53;1.90;;;;;;;5.87;100.00;100056.00;6096358;23;20023;-81
2023/01/14 09:42:49;;;;;;;10.13;2.60;;;;;;;7.04;100.00;100251.09;6096262;23;20057;-80
2023/01/14 09:45:22;;;;;;;14.32;2.50;;;;;;;6.36;100.00;100127.16;6095680;23;20101;-81
2023/01/14 09:47:49;;;;;;;12.90;2.40;;;;;;;6.59;100.00;100143.88;6071229;23;20064;-80
2023/01/14 09:50:19;;;;;;;10.20;2.10;;;;;;;7.25;100.00;100228.38;6071004;23;20022;-81
2023/01/14 09:53:06;;;;;;;6.97;2.28;;;;;;;7.25;100.00;100208.19;6095403;23;20034;-81
2023/01/14 09:55:44;;;;;;;9.80;2.00;;;;;;;6.78;100.00;100114.25;6095446;23;20038;-80
2023/01/14 09:58:24;;;;;;;8.57;2.03;;;;;;;6.53;100.00;100064.28;6096354;23;20033;-80
2023/01/14 10:01:29;;;;;;;12.02;2.38;;;;;;;6.13;100.00;99999.13;6096206;23;20049;-81
2023/01/14 10:04:09;;;;;;;9.50;1.95;;;;;;;5.98;100.00;99966.34;6051094;23;20112;-81
2023/01/14 10:06:38;;;;;;;7.80;2.15;;;;;;;7.13;100.00;100141.94;6096417;23;20029;-81
2023/01/14 10:09:14;;;;;;;10.30;1.90;;;;;;;7.21;100.00;100145.16;6095865;23;20087;-80
2023/01/14 10:11:44;;;;;;;14.63;2.50;;;;;;;6.77;100.00;100070.47;6096295;23;20033;-82
2023/01/14 10:14:13;;;;;;;8.25;2.00;;;;;;;7.39;100.00;100171.69;6095948;23;20074;-81
2023/01/14 10:16:43;;;;;;;8.82;2.25;;;;;;;6.03;100.00;99924.97;6095941;23;20050;-80
2023/01/14 10:19:50;;;;;;;10.60;2.20;;;;;;;6.95;100.00;100075.03;6096490;23;20018;-80
2023/01/14 10:22:40;;;;;;;9.32;2.08;;;;;;;7.51;100.00;100172.13;6007058;23;20020;-80
2023/01/14 10:25:19;;;;;;;11.50;1.92;;;;;;;6.64;100.00;100022.66;6007986;23;20102;-80
2023/01/14 10:27:55;;;;;;;6.32;1.67;;;;;;;7.39;100.00;100128.69;6073089;23;20032;-80
2023/01/14 10:30:28;;;;;;;8.88;1.75;;;;;;;6.22;100.00;99947.06;6096680;23;20334;-81
2023/01/14 10:32:57;;;;;;;11.25;2.90;;;;;;;6.32;100.00;99958.09;6096467;23;20089;-82
2023/01/14 10:35:36;;;;;;;11.32;1.80;;;;;;;6.01;100.00;99913.66;6096870;23;20022;-81
2023/01/14 10:38:03;;;;;;;9.68;1.95;;;;;;;6.99;100.00;100035.38;6096838;23;20033;-83
2023/01/14 10:40:33;;;;;;;5.90;2.10;;;;;;;7.32;100.00;100074.50;6096488;23;20038;-83
2023/01/14 10:43:02;;;;;;;5.72;1.58;;;;;;;7.13;100.00;100026.09;6096322;23;20157;-82
2023/01/14 10:45:29;;;;;;;9.20;1.65;;;;;;;6.49;100.00;99903.09;6096678;23;20044;-80
2023/01/14 10:48:04;;;;;;;12.02;2.15;;;;;;;7.66;100.00;100109.16;6095682;23;20079;-81
2023/01/14 10:50:32;;;;;;;5.13;1.58;;;;;;;7.74;100.00;100103.56;6096999;23;20097;-82
2023/01/14 10:53:17;;;;;;;10.05;2.05;;;;;;;6.41;100.00;99860.47;6096169;23;20442;-80
2023/01/14 10:55:50;;;;;;;11.77;1.98;;;;;;;7.45;100.00;100045.91;6071278;23;20101;-81
2023/01/14 10:58:26;;;;;;;7.45;1.92;;;;;;;7.20;100.00;99972.28;6098058;23;20018;-82
2023/01/14 11:01:00;;;;;;;6.05;1.67;;;;;;;6.62;100.00;99875.38;6099400;23;20097;-81
2023/01/14 11:03:37;;;;;;;8.18;1.80;;;;;;;6.34;100.00;99830.03;6101657;23;20050;-83
2023/01/14 11:06:12;;;;;;;7.85;2.05;;;;;;;7.66;100.00;100029.22;6100160;23;20026;-82
2023/01/14 11:08:51;;;;;;;9.80;2.00;;;;;;;7.86;100.00;100060.91;6105809;23;20033;-81
2023/01/14 11:11:25;;;;;;;9.85;2.00;;;;;;;7.59;100.00;100031.25;6079626;23;20438;-81
2023/01/14 11:13:53;;;;;;;9.63;2.00;;;;;;;7.84;100.00;100062.75;6104637;23;20029;-80
2023/01/14 11:16:38;;;;;;;;;;;;;;;;;;;;;
2023/01/14 11:19:27;;;;;;;6.85;2.05;;;;;;;6.78;100.00;99885.31;5991313;23;20032;-82
2023/01/14 11:22:09;;;;;;;9.00;2.30;;;;;;;7.89;100.00;100057.25;5998301;23;20020;-81
2023/01/14 11:24:40;;;;;;;11.00;2.33;;;;;;;7.95;100.00;100030.66;6000850;23;20056;-81
2023/01/14 11:27:17;;;;;;;10.05;2.30;;;;;;;5.91;100.00;99689.78;5999373;24;20155;-81
2023/01/14 11:29:56;;;;;;;5.65;1.90;;;;;;;7.16;100.00;99870.63;5995145;24;20052;-82
2023/01/14 11:32:31;;;;;;;11.18;2.83;;;;;;;7.39;100.00;99876.66;5981937;24;20030;-82
2023/01/14 11:35:01;;;;;;;5.35;1.70;;;;;;;7.16;100.00;99810.06;5979691;24;20031;-81
2023/01/14 11:37:47;;;;;;;6.60;1.88;;;;;;;8.07;100.00;99956.28;5978004;23;20110;-78
2023/01/14 11:43:22;;;;;;;9.40;1.77;;;;;;;6.93;100.00;99742.56;5978167;24;20142;-80
2023/01/14 11:46:09;;;;;;;6.35;1.75;;;;;;;7.52;100.00;99800.56;5978601;23;20036;-81
2023/01/14 11:48:36;;;;;;;8.73;1.95;;;;;;;7.99;100.00;99861.72;5979129;24;20518;-81
2023/01/14 11:51:16;;;;;;;6.53;1.65;;;;;;;8.28;100.00;99909.66;6074112;23;20026;-80
2023/01/14 11:53:49;;;;;;;8.55;1.92;;;;;;;8.29;100.00;99903.47;6095953;23;20038;-80
2023/01/14 11:56:26;;;;;;;7.25;1.77;;;;;;;7.98;100.00;99843.34;6098281;23;20046;-80
2023/01/14 11:58:53;;;;;;;8.13;1.77;;;;;;;7.54;100.00;99784.72;6098110;23;20026;-80
2023/01/14 12:01:26;;;;;;;5.38;1.58;;;;;;;8.32;100.00;99887.53;6101763;23;20029;-80
2023/01/14 12:04:05;;;;;;;6.10;1.60;;;;;;;8.20;100.00;99854.59;6097683;23;20023;-80
2023/01/14 12:06:49;;;;;;;5.85;1.42;;;;;;;8.14;100.00;99832.94;6108556;23;20377;-81